Flight Track Log - Related Links

Times and Time Zones

All times are in EDT time to prevent confusion due to time zone crossing. See the RPA3153 flight status page for this flight to view local times or setup timezone preferences in your user account.

Time Position Orientation Groundspeed Altitude Reporting Facility
EDT Latitude Longitude Course Direction KTS MPH feet Rate Location/Type
Thu 10:45:02 AM 39.8500 -75.2833 194° South 139 160 900  Level Philadelphia TRACON
Thu 10:45:44 AM 39.8333 -75.3000 218° Southwest 179 206 2,000 2,277 Climbing Philadelphia TRACON
Thu 10:47:19 AM 39.7614 -75.3728 218° Southwest 209 241 6,100 2,577 Climbing Washington Center
Thu 10:48:20 AM 39.6947 -75.3867 189° South 227 261 8,700 2,479 Climbing Washington Center
Thu 10:49:00 AM 39.3484 -75.3428 185° South  Level FlightAware Approximate
Thu 10:49:20 AM 39.6175 -75.3625 166° South 252 290 11,100  Level Washington Center
Thu 10:50:00 AM 39.2431 -75.3634 194° South  Level FlightAware Approximate
Thu 10:50:21 AM 39.5319 -75.3358 166° South 281 323 13,100  Level Washington Center
Thu 10:51:19 AM 39.4444 -75.3389 182° South 309 356 15,400 1,916 Climbing Washington Center
Thu 10:52:20 AM 39.3486 -75.3581 189° South 326 375 16,900 738 Climbing Washington Center
Thu 10:53:21 AM 39.2569 -75.3744 188° South 337 388 16,900 100 Level Washington Center
Thu 10:54:20 AM 39.1633 -75.3881 186° South 342 394 17,100 1,000 Climbing Washington Center
Thu 10:55:21 AM 39.0675 -75.4044 188° South 347 399 18,900 1,916 Climbing Washington Center
Thu 10:56:19 AM 38.9714 -75.4181 186° South 352 405 20,900 1,815 Climbing Washington Center
Thu 10:57:20 AM 38.8756 -75.4422 191° South 352 405 22,500 1,475 Climbing Washington Center
Thu 10:58:21 AM 38.7881 -75.5092 211° Southwest 357 411 23,900 1,438 Climbing Washington Center
Thu 10:59:21 AM 38.6986 -75.5758 210° Southwest 362 417 25,400 1,373 Climbing Washington Center
Thu 11:00:19 AM 38.6047 -75.6475 211° Southwest 381 438 26,600 1,311 Climbing Washington Center
Thu 11:01:20 AM 38.5108 -75.7192 211° Southwest 386 444 28,000 1,279 Climbing Washington Center
Thu 11:02:21 AM 38.4169 -75.7853 209° Southwest 386 444 29,200 1,261 Climbing Washington Center
Thu 11:03:19 AM 38.3314 -75.8458 209° Southwest 386 444 30,500 1,373 Climbing Washington Center
Thu 11:04:19 AM 38.2289 -75.9247 211° Southwest 395 455 31,900 1,240 Climbing Washington Center
Thu 11:05:20 AM 38.1328 -75.9931 209° Southwest 395 455 33,000 1,041 Climbing Washington Center
Thu 11:06:20 AM 38.0431 -76.0583 210° Southwest 395 455 34,000 500 Climbing Washington Center
Thu 11:07:20 AM 37.9531 -76.1264 211° Southwest 389 448 34,000  Level Washington Center
Thu 11:08:19 AM 37.8608 -76.1914 209° Southwest 382 440 34,000  Level Washington Center
Thu 11:09:19 AM 37.7708 -76.2564 210° Southwest 382 440 34,000  Level Washington Center
Thu 11:10:20 AM 37.6789 -76.3211 209° Southwest 382 440 34,000  Level Washington Center
Thu 11:11:20 AM 37.5908 -76.3858 210° Southwest 382 440 34,000  Level Washington Center
Thu 11:12:21 AM 37.4986 -76.4531 210° Southwest 382 440 34,000  Level Washington Center
Thu 11:13:21 AM 37.4064 -76.5200 210° Southwest 382 440 34,000  Level Washington Center
Thu 11:14:20 AM 37.3139 -76.5842 209° Southwest 382 440 34,000  Level Washington Center
Thu 11:15:20 AM 37.2217 -76.6481 209° Southwest 382 440 34,000  Level Washington Center
Thu 11:16:19 AM 37.1314 -76.7147 210° Southwest 382 440 34,000  Level Washington Center
Thu 11:17:21 AM 37.0411 -76.7811 210° Southwest 382 440 34,000  Level Washington Center
Thu 11:18:21 AM 36.9506 -76.8447 209° Southwest 382 440 34,000  Level Washington Center
Thu 11:19:19 AM 36.8603 -76.9106 210° Southwest 382 440 34,000  Level Washington Center
Thu 11:20:19 AM 36.7678 -76.9739 209° Southwest 382 440 34,000  Level Washington Center
Thu 11:21:19 AM 36.6814 -77.0422 212° Southwest 382 440 34,000  Level Washington Center
Thu 11:22:20 AM 36.5992 -77.1211 218° Southwest 382 440 34,000  Level Washington Center
Thu 11:23:19 AM 36.5167 -77.1994 217° Southwest 382 440 34,000  Level Washington Center
Thu 11:24:20 AM 36.4322 -77.2778 217° Southwest 382 440 34,000  Level Washington Center
Thu 11:25:20 AM 36.3517 -77.3561 218° Southwest 382 440 34,000  Level Washington Center
Thu 11:26:21 AM 36.2669 -77.4367 217° Southwest 382 440 34,000  Level Washington Center
Thu 11:27:18 AM 36.1867 -77.5119 217° Southwest 376 433 34,000  Level Washington Center
Thu 11:28:19 AM 36.1039 -77.5922 218° Southwest 376 433 34,000  Level Washington Center
Thu 11:29:20 AM 36.0192 -77.6694 216° Southwest 376 433 34,000  Level Washington Center
Thu 11:30:21 AM 35.9344 -77.7392 214° Southwest 376 433 34,000  Level Washington Center
Thu 11:31:19 AM 35.8433 -77.8111 213° Southwest 381 438 34,000  Level Washington Center
Thu 11:32:20 AM 35.7586 -77.8778 213° Southwest 381 438 34,000  Level Washington Center
Thu 11:33:20 AM 35.6717 -77.9469 213° Southwest 375 432 34,000  Level Washington Center
Thu 11:34:21 AM 35.5828 -78.0158 212° Southwest 380 437 34,000  Level Washington Center
Thu 11:35:19 AM 35.4936 -78.0844 212° Southwest 380 437 34,000  Level Washington Center
Thu 11:36:20 AM 35.4047 -78.1531 212° Southwest 380 437 34,000  Level Washington Center
Thu 11:37:21 AM 35.3306 -78.2067 211° Southwest 380 437 34,000  Level Washington Center
Thu 11:38:20 AM 35.2369 -78.2850 214° Southwest 380 437 34,000  Level Washington Center
Thu 11:39:20 AM 35.1456 -78.3531 211° Southwest 380 437 34,000  Level Washington Center
Thu 11:40:21 AM 35.0756 -78.4067 212° Southwest 380 437 34,000  Level Washington Center
Thu 11:41:18 AM 34.9672 -78.4914 213° Southwest 380 437 34,000  Level Washington Center
Thu 11:42:19 AM 34.8817 -78.5719 218° Southwest 380 437 34,000  Level Washington Center
Thu 11:45:39 AM 34.6039 -78.8492 219° Southwest 389 448 34,000  Level Jacksonville Center
Thu 11:46:39 AM 34.5211 -78.9286 218° Southwest 389 448 34,000  Level Jacksonville Center
Thu 11:47:39 AM 34.4361 -79.0208 222° Southwest 406 467 34,000  Level Jacksonville Center
Thu 11:48:39 AM 34.3533 -79.1047 220° Southwest 405 466 34,000  Level Jacksonville Center
Thu 11:49:39 AM 34.2681 -79.1864 218° Southwest 400 460 34,000  Level Jacksonville Center
Thu 11:50:39 AM 34.1808 -79.2706 219° Southwest 400 460 34,000  Level Jacksonville Center
Thu 11:51:39 AM 34.0956 -79.3542 219° Southwest 395 455 34,000  Level Jacksonville Center
Thu 11:52:39 AM 34.0042 -79.4406 218° Southwest 390 449 34,000  Level Jacksonville Center
Thu 11:53:39 AM 33.9186 -79.5242 219° Southwest 390 449 34,000  Level Jacksonville Center
Thu 11:54:39 AM 33.8333 -79.6050 218° Southwest 396 456 34,000  Level Jacksonville Center
Thu 11:55:39 AM 33.7458 -79.6906 219° Southwest 396 456 34,000  Level Jacksonville Center
Thu 11:56:39 AM 33.6603 -79.7761 220° Southwest 396 456 34,000 -150 Level Jacksonville Center
Thu 11:57:39 AM 33.5744 -79.8589 219° Southwest 396 456 33,700 -1,150 Descending Jacksonville Center
Thu 11:58:39 AM 33.4867 -79.9414 218° Southwest 401 461 31,700 -2,050 Descending Jacksonville Center
Thu 11:59:39 AM 33.4011 -80.0239 219° Southwest 401 461 29,600 -2,100 Descending Jacksonville Center
Thu 12:00:39 PM 33.3153 -80.1086 220° Southwest 401 461 27,500 -2,100 Descending Jacksonville Center
Thu 12:01:39 PM 33.2272 -80.1908 218° Southwest 406 467 25,400 -1,900 Descending Jacksonville Center
Thu 12:02:39 PM 33.1494 -80.2628 218° Southwest 406 467 23,700 -1,850 Descending Jacksonville Center
Thu 12:03:39 PM 33.0617 -80.3519 220° Southwest 393 452 21,700 -1,900 Descending Jacksonville Center
Thu 12:04:39 PM 32.9897 -80.4136 216° Southwest 375 432 19,900 -1,950 Descending Jacksonville Center
Thu 12:05:39 PM 32.9139 -80.4850 218° Southwest 362 417 17,800 -1,750 Descending Jacksonville Center
Thu 12:06:39 PM 32.8400 -80.5561 219° Southwest 356 410 16,400 -1,600 Descending Jacksonville Center
Thu 12:07:39 PM 32.7683 -80.6222 218° Southwest 351 404 14,600 -1,700 Descending Jacksonville Center
Thu 12:08:39 PM 32.6964 -80.6906 219° Southwest 340 391 13,000 -1,650 Descending Jacksonville Center
Thu 12:09:39 PM 32.6286 -80.7539 218° Southwest 335 386 11,300 -1,600 Descending Jacksonville Center
Thu 12:10:39 PM 32.5589 -80.8222 220° Southwest 309 356 9,800 -1,500 Descending Jacksonville Center
Thu 12:11:39 PM 32.4972 -80.8803 218° Southwest 285 328 8,300 -850 Descending Jacksonville Center
Thu 12:12:39 PM 32.4436 -80.9281 217° Southwest 279 321 8,100 -150 Descending Jacksonville Center
Thu 12:13:39 PM 32.3839 -80.9836 218° Southwest 273 314 8,000 -1,050 Descending Jacksonville Center
Thu 12:14:39 PM 32.3181 -81.0439 218° Southwest 273 314 6,000 -1,800 Descending Jacksonville Center
Thu 12:15:39 PM 32.2603 -81.0942 216° Southwest 267 307 4,400 -1,600 Descending Jacksonville Center
Thu 12:16:39 PM 32.2047 -81.1494 220° Southwest 267 307 2,800 -1,200 Descending Jacksonville Center
Thu 12:17:39 PM 32.1931 -81.2256 260° West 254 292 2,000 -800 Descending Jacksonville Center

Login

Don't have an account? Register now (free) for customized features, flight alerts, and more!